createdAt,value
2023-05-22T00:00:18.892Z,60.65
2023-05-22T00:03:07.093Z,60.60
2023-05-22T00:05:39.187Z,60.25
2023-05-22T00:08:12.031Z,60.10
2023-05-22T00:10:40.663Z,60.40
2023-05-22T00:13:09.503Z,60.34
2023-05-22T00:15:37.778Z,60.19
2023-05-22T00:18:06.697Z,60.24
2023-05-22T00:20:39.444Z,60.46
2023-05-22T00:23:12.167Z,60.48
2023-05-22T00:25:41.526Z,60.64
2023-05-22T00:28:09.901Z,60.51
2023-05-22T00:30:38.594Z,60.52
2023-05-22T00:33:07.243Z,60.84
2023-05-22T00:35:35.672Z,60.62
2023-05-22T00:38:05.877Z,60.86
2023-05-22T00:40:34.355Z,61.02
2023-05-22T00:43:08.817Z,60.94
2023-05-22T00:45:38.169Z,61.01
2023-05-22T00:48:08.423Z,61.11
2023-05-22T00:50:36.784Z,61.21
2023-05-22T00:53:05.249Z,61.36
2023-05-22T00:55:33.525Z,61.31
2023-05-22T00:58:03.468Z,61.50
2023-05-22T01:00:34.583Z,61.43
2023-05-22T01:03:05.912Z,61.45
2023-05-22T01:05:35.130Z,61.59
2023-05-22T01:08:04.253Z,61.57
2023-05-22T01:10:33.459Z,61.72
2023-05-22T01:13:25.338Z,61.89
2023-05-22T01:16:25.553Z,62.13
2023-05-22T01:19:02.922Z,62.35
2023-05-22T01:21:39.525Z,62.36
2023-05-22T01:24:18.544Z,62.55
2023-05-22T01:26:55.013Z,62.55
2023-05-22T01:29:37.535Z,62.87
2023-05-22T01:32:06.205Z,63.01
2023-05-22T01:34:36.660Z,63.31
2023-05-22T01:37:05.574Z,63.44
2023-05-22T01:39:34.204Z,63.43
2023-05-22T01:42:02.684Z,63.58
2023-05-22T01:44:30.968Z,63.67
2023-05-22T01:47:03.839Z,63.95
2023-05-22T01:49:33.766Z,64.03
2023-05-22T01:52:19.135Z,63.99
2023-05-22T01:54:58.870Z,64.22
2023-05-22T01:57:31.376Z,64.36
2023-05-22T02:00:10.087Z,64.41
2023-05-22T02:02:50.370Z,64.49
2023-05-22T02:05:22.700Z,64.55
2023-05-22T02:07:51.183Z,64.92
2023-05-22T02:10:21.085Z,64.93
2023-05-22T02:12:49.564Z,65.02
2023-05-22T02:15:18.452Z,65.16
2023-05-22T02:17:49.822Z,65.28
2023-05-22T02:20:18.192Z,65.30
2023-05-22T02:22:47.697Z,65.53
2023-05-22T02:25:17.588Z,65.54
2023-05-22T02:27:48.122Z,65.56
2023-05-22T02:30:16.621Z,65.87
2023-05-22T02:32:46.476Z,66.02
2023-05-22T02:35:15.048Z,65.90
2023-05-22T02:37:43.275Z,65.92
2023-05-22T02:40:12.573Z,65.84
2023-05-22T02:42:40.844Z,65.81
2023-05-22T02:45:10.002Z,66.06
2023-05-22T02:47:38.409Z,66.10
2023-05-22T02:50:08.235Z,66.21
2023-05-22T02:52:37.356Z,66.67
2023-05-22T02:55:06.211Z,66.52
2023-05-22T02:57:34.482Z,66.40
2023-05-22T03:00:03.976Z,66.24
2023-05-22T03:02:36.968Z,66.64
2023-05-22T03:05:06.475Z,66.81
2023-05-22T03:07:35.217Z,66.88
2023-05-22T03:10:03.852Z,66.97
2023-05-22T03:12:32.322Z,67.04
2023-05-22T03:15:01.733Z,67.09
2023-05-22T03:17:31.238Z,67.34
2023-05-22T03:19:59.422Z,67.45
2023-05-22T03:22:27.777Z,67.33
2023-05-22T03:24:56.153Z,67.39
2023-05-22T03:27:24.427Z,67.71
2023-05-22T03:29:52.922Z,67.73
2023-05-22T03:32:22.543Z,68.00
2023-05-22T03:34:51.198Z,67.98
2023-05-22T03:37:19.472Z,67.89
2023-05-22T03:39:47.852Z,68.18
2023-05-22T03:42:26.786Z,68.19
2023-05-22T03:44:54.946Z,68.24
2023-05-22T03:47:23.500Z,68.29
2023-05-22T03:49:52.122Z,68.34
2023-05-22T03:52:20.470Z,68.68
2023-05-22T03:54:48.762Z,68.69
2023-05-22T03:57:20.210Z,68.79
2023-05-22T03:59:48.485Z,68.64
2023-05-22T04:02:17.952Z,68.87
2023-05-22T04:04:46.752Z,68.97
2023-05-22T04:07:15.252Z,69.03
2023-05-22T04:09:43.427Z,68.98
2023-05-22T04:12:11.598Z,68.99
2023-05-22T04:14:39.871Z,69.05
2023-05-22T04:17:09.067Z,69.16
2023-05-22T04:19:37.443Z,69.16
2023-05-22T04:22:06.026Z,69.27
2023-05-22T04:24:34.309Z,69.40
2023-05-22T04:27:02.787Z,69.34
2023-05-22T04:29:31.266Z,69.21
2023-05-22T04:32:00.464Z,69.05
2023-05-22T04:34:30.596Z,69.20
2023-05-22T04:37:00.382Z,69.25
2023-05-22T04:39:28.557Z,69.24
2023-05-22T04:42:05.894Z,68.98
2023-05-22T04:44:37.190Z,68.46
2023-05-22T04:47:07.783Z,67.79
2023-05-22T04:49:36.607Z,67.36
2023-05-22T04:52:08.525Z,67.42
2023-05-22T04:54:36.869Z,67.30
2023-05-22T04:57:05.734Z,67.09
2023-05-22T04:59:38.204Z,67.11
2023-05-22T05:02:06.586Z,66.78
2023-05-22T05:04:34.902Z,66.87
2023-05-22T05:07:05.202Z,66.69
2023-05-22T05:09:33.975Z,66.16
2023-05-22T05:12:03.672Z,65.47
2023-05-22T05:14:31.947Z,64.67
2023-05-22T05:17:00.363Z,64.09
2023-05-22T05:19:28.891Z,63.84
2023-05-22T05:21:57.180Z,63.63
2023-05-22T05:24:26.481Z,63.31
2023-05-22T05:26:55.264Z,62.67
2023-05-22T05:29:23.545Z,62.18
2023-05-22T05:32:00.106Z,62.36
2023-05-22T05:34:40.981Z,61.84
2023-05-22T05:37:21.645Z,61.52
2023-05-22T05:39:50.792Z,61.25
2023-05-22T05:42:19.118Z,61.03
2023-05-22T05:44:48.828Z,60.85
2023-05-22T05:47:18.030Z,60.34
2023-05-22T05:49:46.296Z,60.33
2023-05-22T05:52:16.418Z,58.63
2023-05-22T05:54:47.605Z,57.31
2023-05-22T05:57:19.781Z,57.30
2023-05-22T05:59:48.764Z,57.76
2023-05-22T06:02:40.504Z,57.33
2023-05-22T06:05:17.880Z,57.63
2023-05-22T06:07:46.522Z,58.00
2023-05-22T06:10:14.715Z,57.42
2023-05-22T06:12:56.784Z,56.99
2023-05-22T06:15:25.167Z,57.52
2023-05-22T06:17:53.894Z,57.52
2023-05-22T06:20:22.655Z,57.60
2023-05-22T06:22:52.142Z,57.68
2023-05-22T06:25:20.726Z,58.19
2023-05-22T06:27:49.609Z,58.01
2023-05-22T06:30:28.357Z,57.17
2023-05-22T06:33:06.524Z,57.45
2023-05-22T06:35:34.849Z,57.18
2023-05-22T06:38:04.225Z,56.83
2023-05-22T06:40:32.589Z,56.83
2023-05-22T06:43:15.811Z,56.61
2023-05-22T06:45:56.954Z,56.28
2023-05-22T06:48:25.265Z,56.36
2023-05-22T06:51:16.583Z,55.49
2023-05-22T06:53:47.208Z,56.39
2023-05-22T06:56:19.287Z,57.06
2023-05-22T06:58:53.185Z,55.50
2023-05-22T07:01:23.530Z,55.40
2023-05-22T07:04:02.640Z,55.20
2023-05-22T07:06:41.976Z,55.25
2023-05-22T07:09:11.556Z,55.28
2023-05-22T07:11:39.951Z,54.16
2023-05-22T07:14:08.937Z,53.03
2023-05-22T07:16:37.516Z,53.49
2023-05-22T07:19:06.831Z,54.04
2023-05-22T07:21:36.245Z,52.81
2023-05-22T07:24:08.573Z,52.88
2023-05-22T07:26:41.475Z,52.77
2023-05-22T07:29:12.205Z,52.48
2023-05-22T07:31:40.734Z,52.09
2023-05-22T07:34:09.676Z,51.90
2023-05-22T07:36:38.359Z,52.28
2023-05-22T07:39:07.143Z,53.09
2023-05-22T07:41:39.209Z,51.84
2023-05-22T07:44:08.204Z,51.45
2023-05-22T07:46:38.469Z,51.27
2023-05-22T07:49:12.738Z,51.45
2023-05-22T07:51:43.466Z,50.15
2023-05-22T07:54:13.701Z,49.94
2023-05-22T07:56:42.987Z,48.40
2023-05-22T07:59:12.488Z,48.14
2023-05-22T08:01:42.212Z,48.64
2023-05-22T08:04:10.589Z,48.34
2023-05-22T08:06:40.176Z,46.58
2023-05-22T08:09:08.348Z,45.93
2023-05-22T08:11:39.711Z,46.52
2023-05-22T08:14:08.176Z,45.11
2023-05-22T08:16:36.570Z,44.79
2023-05-22T08:19:07.383Z,44.52
2023-05-22T08:21:36.177Z,44.39
2023-05-22T08:24:04.666Z,44.51
2023-05-22T08:26:34.161Z,42.27
2023-05-22T08:29:02.841Z,42.36
2023-05-22T08:31:31.242Z,42.37
2023-05-22T08:34:02.947Z,42.44
2023-05-22T08:36:34.230Z,40.21
2023-05-22T08:39:02.697Z,41.33
2023-05-22T08:41:30.868Z,40.50
2023-05-22T08:43:59.251Z,41.44
2023-05-22T08:46:30.274Z,40.00
2023-05-22T08:48:59.280Z,40.22
2023-05-22T08:51:29.410Z,40.57
2023-05-22T08:53:57.975Z,39.74
2023-05-22T08:56:28.545Z,39.85
2023-05-22T08:58:58.928Z,38.75
2023-05-22T09:01:28.931Z,37.75
2023-05-22T09:04:02.095Z,36.78
2023-05-22T09:06:30.622Z,36.25
2023-05-22T09:09:03.503Z,35.81
2023-05-22T09:11:31.775Z,35.68
2023-05-22T09:14:10.222Z,34.27
2023-05-22T09:16:48.847Z,35.77
2023-05-22T09:19:17.355Z,35.58
2023-05-22T09:21:46.301Z,34.93
2023-05-22T09:24:14.759Z,34.44
2023-05-22T09:26:42.929Z,33.18
2023-05-22T09:29:11.237Z,33.26
2023-05-22T09:31:44.036Z,33.70
2023-05-22T09:34:16.007Z,33.41
2023-05-22T09:36:44.286Z,33.48
2023-05-22T09:39:12.502Z,32.97
2023-05-22T09:41:40.782Z,32.48
2023-05-22T09:44:15.625Z,32.10
2023-05-22T09:46:47.783Z,31.97
2023-05-22T09:49:17.497Z,32.03
2023-05-22T09:51:49.506Z,32.21
2023-05-22T09:54:19.968Z,32.70
2023-05-22T09:56:50.327Z,32.94
2023-05-22T09:59:26.974Z,32.54
2023-05-22T10:01:55.969Z,32.56
2023-05-22T10:04:24.597Z,32.86
2023-05-22T10:06:57.922Z,33.29
2023-05-22T10:09:31.209Z,33.34
2023-05-22T10:12:04.551Z,33.06
2023-05-22T10:14:35.343Z,32.31
2023-05-22T10:17:06.954Z,30.84
2023-05-22T10:19:38.697Z,29.73
2023-05-22T10:22:11.842Z,28.70
2023-05-22T10:24:40.323Z,27.63
2023-05-22T10:27:08.597Z,27.61
2023-05-22T10:29:43.345Z,26.29
2023-05-22T10:32:22.284Z,25.52
2023-05-22T10:34:56.678Z,25.17
2023-05-22T10:37:57.196Z,24.80
2023-05-22T10:40:29.409Z,24.17
2023-05-22T10:43:03.067Z,23.74
2023-05-22T10:45:32.169Z,23.30
2023-05-22T10:48:08.367Z,23.12
2023-05-22T10:50:36.937Z,22.55
2023-05-22T10:53:26.387Z,22.54
2023-05-22T10:55:57.004Z,22.57
2023-05-22T10:58:30.298Z,21.77
2023-05-22T11:01:15.013Z,21.60
2023-05-22T11:04:13.673Z,20.66
2023-05-22T11:07:04.627Z,20.41
2023-05-22T11:09:48.440Z,20.74
2023-05-22T11:12:31.230Z,20.37
2023-05-22T11:15:08.382Z,21.10
2023-05-22T11:17:39.831Z,20.78
2023-05-22T11:20:10.612Z,19.78
2023-05-22T11:22:44.133Z,20.31
2023-05-22T11:25:16.948Z,20.76
2023-05-22T11:27:45.731Z,21.11
2023-05-22T11:30:15.441Z,21.10
2023-05-22T11:32:45.425Z,20.81
2023-05-22T11:35:22.844Z,21.15
2023-05-22T11:37:53.593Z,20.54
2023-05-22T11:40:26.364Z,20.56
2023-05-22T11:42:55.250Z,20.21
2023-05-22T11:45:23.918Z,20.20
2023-05-22T11:47:52.320Z,18.80
2023-05-22T11:50:33.580Z,19.41
2023-05-22T11:53:09.191Z,19.45
2023-05-22T11:55:37.716Z,19.16
2023-05-22T11:58:05.990Z,19.06
2023-05-22T12:00:34.374Z,18.09
2023-05-22T12:03:02.796Z,18.11
2023-05-22T12:05:32.673Z,18.24
2023-05-22T12:08:01.107Z,18.20
2023-05-22T12:10:29.409Z,17.29
2023-05-22T12:12:57.891Z,16.73
2023-05-22T12:15:27.328Z,17.53
2023-05-22T12:17:56.734Z,17.57
2023-05-22T12:20:30.839Z,17.75
2023-05-22T12:23:00.065Z,16.85
2023-05-22T12:25:36.073Z,17.30
2023-05-22T12:28:06.536Z,16.93
2023-05-22T12:30:42.064Z,17.13
2023-05-22T12:33:15.324Z,17.38
2023-05-22T12:35:43.787Z,17.39
2023-05-22T12:38:13.778Z,17.36
2023-05-22T12:40:42.904Z,17.37
2023-05-22T12:43:11.285Z,17.20
2023-05-22T12:45:42.626Z,16.23
2023-05-22T12:48:12.205Z,15.95
2023-05-22T12:50:41.318Z,16.02
2023-05-22T12:53:09.806Z,16.14
2023-05-22T12:55:39.229Z,15.58
2023-05-22T12:58:07.900Z,15.73
2023-05-22T13:00:36.368Z,16.75
2023-05-22T13:03:05.905Z,16.93
2023-05-22T13:05:34.582Z,17.42
2023-05-22T13:08:02.837Z,17.53
2023-05-22T13:10:31.207Z,17.67
2023-05-22T13:12:59.481Z,17.85
2023-05-22T13:15:29.802Z,18.38
2023-05-22T13:17:58.124Z,18.40
2023-05-22T13:20:26.561Z,18.43
2023-05-22T13:22:55.241Z,18.13
2023-05-22T13:25:23.411Z,18.09
2023-05-22T13:27:51.692Z,18.11
2023-05-22T13:30:20.170Z,17.57
2023-05-22T13:32:48.497Z,17.62
2023-05-22T13:35:16.924Z,17.96
2023-05-22T13:37:45.208Z,18.21
2023-05-22T13:40:13.576Z,17.95
2023-05-22T13:42:42.062Z,18.20
2023-05-22T13:45:10.840Z,18.70
2023-05-22T13:47:39.063Z,18.52
2023-05-22T13:50:08.392Z,18.50
2023-05-22T13:52:36.797Z,18.07
2023-05-22T13:55:06.094Z,17.76
2023-05-22T13:57:34.577Z,18.07
2023-05-22T14:00:03.871Z,18.07
2023-05-22T14:02:51.272Z,18.03
2023-05-22T14:05:19.975Z,17.70
2023-05-22T14:07:48.358Z,18.23
2023-05-22T14:10:17.967Z,17.93
2023-05-22T14:12:46.542Z,17.81
2023-05-22T14:15:16.376Z,18.06
2023-05-22T14:17:44.700Z,18.41
2023-05-22T14:20:13.112Z,19.34
2023-05-22T14:22:55.723Z,18.45
2023-05-22T14:25:26.549Z,19.10
2023-05-22T14:27:54.841Z,19.28
2023-05-22T14:30:23.201Z,19.33
2023-05-22T14:32:51.809Z,18.73
2023-05-22T14:35:20.367Z,19.10
2023-05-22T14:37:48.538Z,20.07
2023-05-22T14:40:17.014Z,20.52
2023-05-22T14:42:45.953Z,20.74
2023-05-22T14:45:14.193Z,20.29
2023-05-22T14:47:43.526Z,20.39
2023-05-22T14:50:19.238Z,20.38
2023-05-22T14:52:51.517Z,20.52
2023-05-22T14:55:21.315Z,20.32
2023-05-22T14:57:49.801Z,20.25
2023-05-22T15:00:18.583Z,20.26
2023-05-22T15:02:46.954Z,20.68
2023-05-22T15:05:15.912Z,20.48
2023-05-22T15:07:46.103Z,20.51
2023-05-22T15:10:15.776Z,20.86
2023-05-22T15:12:44.154Z,21.38
2023-05-22T15:15:12.435Z,21.51
2023-05-22T15:17:42.624Z,21.65
2023-05-22T15:20:11.787Z,21.79
2023-05-22T15:22:40.629Z,21.72
2023-05-22T15:25:12.198Z,21.97
2023-05-22T15:27:41.375Z,22.78
2023-05-22T15:30:10.176Z,23.27
2023-05-22T15:32:39.190Z,23.71
2023-05-22T15:35:09.194Z,23.83
2023-05-22T15:37:37.447Z,23.95
2023-05-22T15:40:06.434Z,24.59
2023-05-22T15:42:34.615Z,24.29
2023-05-22T15:45:02.982Z,24.99
2023-05-22T15:47:31.397Z,24.86
2023-05-22T15:50:00.272Z,25.55
2023-05-22T15:52:28.534Z,25.95
2023-05-22T15:54:57.338Z,26.21
2023-05-22T15:57:28.607Z,26.17
2023-05-22T15:59:57.036Z,26.84
2023-05-22T16:02:25.828Z,26.88
2023-05-22T16:04:54.314Z,27.54
2023-05-22T16:07:22.680Z,27.66
2023-05-22T16:09:50.955Z,27.84
2023-05-22T16:12:19.360Z,28.77
2023-05-22T16:14:47.961Z,28.24
2023-05-22T16:17:16.289Z,28.45
2023-05-22T16:19:44.567Z,28.90
2023-05-22T16:22:12.838Z,28.94
2023-05-22T16:24:41.318Z,29.43
2023-05-22T16:27:09.707Z,29.57
2023-05-22T16:29:38.074Z,30.29
2023-05-22T16:32:06.498Z,30.38
2023-05-22T16:34:35.133Z,30.67
2023-05-22T16:37:03.513Z,31.01
2023-05-22T16:39:31.788Z,30.86
2023-05-22T16:42:01.305Z,31.90
2023-05-22T16:44:29.461Z,32.10
2023-05-22T16:46:57.749Z,32.11
2023-05-22T16:49:26.018Z,32.41
2023-05-22T16:51:54.388Z,32.96
2023-05-22T16:54:22.561Z,32.79
2023-05-22T16:56:51.045Z,32.52
2023-05-22T16:59:19.954Z,32.86
2023-05-22T17:01:48.310Z,32.70
2023-05-22T17:04:18.735Z,32.86
2023-05-22T17:06:48.133Z,32.97
2023-05-22T17:09:16.306Z,33.77
2023-05-22T17:11:44.478Z,33.31
2023-05-22T17:14:13.166Z,33.86
2023-05-22T17:16:41.386Z,33.86
2023-05-22T17:19:10.054Z,33.91
2023-05-22T17:21:38.495Z,34.19
2023-05-22T17:24:12.644Z,34.43
2023-05-22T17:26:43.024Z,34.89
2023-05-22T17:29:11.410Z,34.96
2023-05-22T17:31:39.855Z,34.99
2023-05-22T17:34:08.263Z,35.85
2023-05-22T17:36:36.549Z,35.95
2023-05-22T17:39:04.925Z,35.76
2023-05-22T17:41:33.398Z,36.37
2023-05-22T17:44:01.978Z,36.48
2023-05-22T17:46:30.276Z,36.72
2023-05-22T17:48:58.631Z,36.59
2023-05-22T17:51:26.933Z,36.88
2023-05-22T17:53:56.615Z,37.43
2023-05-22T17:56:26.651Z,37.66
2023-05-22T17:58:54.914Z,37.96
2023-05-22T18:01:24.822Z,37.75
2023-05-22T18:03:53.356Z,37.69
2023-05-22T18:06:23.953Z,38.41
2023-05-22T18:08:52.721Z,38.76
2023-05-22T18:11:21.396Z,38.92
2023-05-22T18:13:50.388Z,39.54
2023-05-22T18:16:21.477Z,39.73
2023-05-22T18:18:49.941Z,40.03
2023-05-22T18:21:18.182Z,40.66
2023-05-22T18:23:46.367Z,41.18
2023-05-22T18:26:14.532Z,41.74
2023-05-22T18:28:42.694Z,42.50
2023-05-22T18:31:10.893Z,42.57
2023-05-22T18:33:39.662Z,43.38
2023-05-22T18:36:08.140Z,44.29
2023-05-22T18:38:36.520Z,44.88
2023-05-22T18:41:06.338Z,45.24
2023-05-22T18:43:34.613Z,46.01
2023-05-22T18:46:02.885Z,46.78
2023-05-22T18:48:31.260Z,47.37
2023-05-22T18:51:00.975Z,48.08
2023-05-22T18:53:29.232Z,48.53
2023-05-22T18:55:57.417Z,48.84
2023-05-22T18:58:25.885Z,49.31
2023-05-22T19:00:55.969Z,49.75
2023-05-22T19:03:24.589Z,49.92
2023-05-22T19:05:52.860Z,50.54
2023-05-22T19:08:21.234Z,51.00
2023-05-22T19:10:49.411Z,51.40
2023-05-22T19:13:17.794Z,51.55
2023-05-22T19:15:46.711Z,52.13
2023-05-22T19:18:14.968Z,52.51
2023-05-22T19:20:43.126Z,52.73
2023-05-22T19:23:12.528Z,53.58
2023-05-22T19:25:40.900Z,53.57
2023-05-22T19:28:09.089Z,53.17
2023-05-22T19:30:37.529Z,54.36
2023-05-22T19:33:08.561Z,54.76
2023-05-22T19:35:38.001Z,55.09
2023-05-22T19:38:06.577Z,55.61
2023-05-22T19:40:34.864Z,56.41
2023-05-22T19:43:03.331Z,56.62
2023-05-22T19:45:31.713Z,57.28
2023-05-22T19:48:00.367Z,57.90
2023-05-22T19:50:28.875Z,58.50
2023-05-22T19:52:57.249Z,59.35
2023-05-22T19:55:25.934Z,59.97
2023-05-22T19:57:54.208Z,60.56
2023-05-22T20:00:22.996Z,62.20
2023-05-22T20:02:51.460Z,63.66
2023-05-22T20:05:20.081Z,63.49
2023-05-22T20:07:48.887Z,62.43
2023-05-22T20:10:17.425Z,62.09
2023-05-22T20:12:46.212Z,60.98
2023-05-22T20:15:15.398Z,61.45
2023-05-22T20:17:48.027Z,61.37
2023-05-22T20:20:16.466Z,59.47
2023-05-22T20:22:45.158Z,57.40
2023-05-22T20:25:13.935Z,57.47
2023-05-22T20:27:42.219Z,57.76
2023-05-22T20:30:12.753Z,58.42
2023-05-22T20:32:42.846Z,59.17
2023-05-22T20:35:13.891Z,59.36
2023-05-22T20:37:42.182Z,58.73
2023-05-22T20:40:11.040Z,62.33
2023-05-22T20:42:41.094Z,64.71
2023-05-22T20:45:14.628Z,64.55
2023-05-22T20:47:44.175Z,64.03
2023-05-22T20:50:12.684Z,62.80
2023-05-22T20:52:41.030Z,59.85
2023-05-22T20:55:09.819Z,57.66
2023-05-22T20:57:38.098Z,57.30
2023-05-22T21:00:11.262Z,57.69
2023-05-22T21:02:39.595Z,58.35
2023-05-22T21:05:08.776Z,59.23
2023-05-22T21:07:37.232Z,61.78
2023-05-22T21:10:06.223Z,64.42
2023-05-22T21:12:34.500Z,63.81
2023-05-22T21:15:02.775Z,61.47
2023-05-22T21:17:30.968Z,60.15
2023-05-22T21:19:59.118Z,60.00
2023-05-22T21:22:27.287Z,61.07
2023-05-22T21:24:55.985Z,60.84
2023-05-22T21:27:24.257Z,58.87
2023-05-22T21:29:52.450Z,57.30
2023-05-22T21:32:20.704Z,57.76
2023-05-22T21:34:48.876Z,58.48
2023-05-22T21:37:17.146Z,59.50
2023-05-22T21:39:45.418Z,61.99
2023-05-22T21:44:44.136Z,66.70
2023-05-22T21:47:12.710Z,65.62
2023-05-22T21:49:41.487Z,63.38
2023-05-22T21:52:09.760Z,61.95
2023-05-22T21:54:38.141Z,61.01
2023-05-22T21:57:06.618Z,64.10
2023-05-22T21:59:34.854Z,59.70
2023-05-22T22:02:03.322Z,55.89
2023-05-22T22:04:31.546Z,56.30
2023-05-22T22:06:59.919Z,57.27
2023-05-22T22:09:28.190Z,58.52
2023-05-22T22:11:56.693Z,59.43
2023-05-22T22:14:25.050Z,64.54
2023-05-22T22:16:54.686Z,63.47
2023-05-22T22:19:23.768Z,62.56
2023-05-22T22:21:52.432Z,62.53
2023-05-22T22:24:20.810Z,62.86
2023-05-22T22:26:49.593Z,62.97
2023-05-22T22:29:17.876Z,63.32
2023-05-22T22:31:46.505Z,63.49
2023-05-22T22:34:15.037Z,63.14
2023-05-22T22:36:43.527Z,63.19
2023-05-22T22:39:11.997Z,63.08
2023-05-22T22:41:40.274Z,63.22
2023-05-22T22:44:08.453Z,63.00
2023-05-22T22:46:36.969Z,63.14
2023-05-22T22:49:05.301Z,63.29
2023-05-22T22:51:34.843Z,63.55
2023-05-22T22:54:03.710Z,63.83
2023-05-22T22:56:32.277Z,64.12
2023-05-22T22:59:00.667Z,64.29
2023-05-22T23:01:29.100Z,64.31
2023-05-22T23:03:57.572Z,64.47
2023-05-22T23:06:29.786Z,64.31
2023-05-22T23:08:59.078Z,64.24
2023-05-22T23:11:28.377Z,64.28
2023-05-22T23:13:56.853Z,64.39
2023-05-22T23:16:26.080Z,64.14
2023-05-22T23:18:54.481Z,64.19
2023-05-22T23:21:22.798Z,64.23
2023-05-22T23:23:51.003Z,64.64
2023-05-22T23:26:19.146Z,64.77
2023-05-22T23:28:47.427Z,64.85
2023-05-22T23:31:16.451Z,65.12
2023-05-22T23:33:44.791Z,65.10
2023-05-22T23:36:12.860Z,65.25
2023-05-22T23:38:41.032Z,65.34
2023-05-22T23:41:09.216Z,65.33
2023-05-22T23:43:37.284Z,65.35
2023-05-22T23:46:05.445Z,65.40
2023-05-22T23:48:33.519Z,65.40
2023-05-22T23:51:02.924Z,65.64
2023-05-22T23:53:30.984Z,65.63
2023-05-22T23:55:59.157Z,65.82
2023-05-22T23:58:29.688Z,65.64
